sensor_id;sensor_type;location;lat;lon;timestamp;pressure;altitude;pressure_sealevel;temperature;humidity
51287;BME280;37364;46.974;18.916;2022-10-17T00:01:47;152752.25;;;9.54;100.00
51287;BME280;37364;46.974;18.916;2022-10-17T00:04:17;152745.81;;;9.52;100.00
51287;BME280;37364;46.974;18.916;2022-10-17T00:06:47;152745.81;;;9.52;100.00
51287;BME280;37364;46.974;18.916;2022-10-17T00:09:17;152734.16;;;9.47;100.00
51287;BME280;37364;46.974;18.916;2022-10-17T00:11:47;152730.28;;;9.45;100.00
51287;BME280;37364;46.974;18.916;2022-10-17T00:14:17;152717.31;;;9.40;100.00
51287;BME280;37364;46.974;18.916;2022-10-17T00:16:50;152713.44;;;9.39;100.00
51287;BME280;37364;46.974;18.916;2022-10-17T00:19:20;152712.16;;;9.38;100.00
51287;BME280;37364;46.974;18.916;2022-10-17T00:21:50;152705.69;;;9.36;100.00
51287;BME280;37364;46.974;18.916;2022-10-17T00:24:20;152696.63;;;9.32;100.00
51287;BME280;37364;46.974;18.916;2022-10-17T00:26:51;152697.91;;;9.33;100.00
51287;BME280;37364;46.974;18.916;2022-10-17T00:29:21;152681.13;;;9.26;100.00
51287;BME280;37364;46.974;18.916;2022-10-17T00:31:56;152683.69;;;9.27;100.00
51287;BME280;37364;46.974;18.916;2022-10-17T00:34:28;152675.94;;;9.24;100.00
51287;BME280;37364;46.974;18.916;2022-10-17T00:36:58;152673.34;;;9.23;100.00
51287;BME280;37364;46.974;18.916;2022-10-17T00:39:28;152665.59;;;9.20;100.00
51287;BME280;37364;46.974;18.916;2022-10-17T00:41:58;152653.94;;;9.15;100.00
51287;BME280;37364;46.974;18.916;2022-10-17T00:47:32;152642.31;;;9.10;100.00
51287;BME280;37364;46.974;18.916;2022-10-17T00:50:02;152641.03;;;9.10;100.00
51287;BME280;37364;46.974;18.916;2022-10-17T00:52:33;152639.75;;;9.09;100.00
51287;BME280;37364;46.974;18.916;2022-10-17T00:55:08;152639.75;;;9.09;100.00
51287;BME280;37364;46.974;18.916;2022-10-17T00:57:40;152630.69;;;9.06;100.00
51287;BME280;37364;46.974;18.916;2022-10-17T01:00:13;152631.97;;;9.06;100.00
51287;BME280;37364;46.974;18.916;2022-10-17T01:02:47;152628.06;;;9.05;100.00
51287;BME280;37364;46.974;18.916;2022-10-17T01:05:18;152622.91;;;9.03;100.00
51287;BME280;37364;46.974;18.916;2022-10-17T01:07:49;152629.34;;;9.05;100.00
51287;BME280;37364;46.974;18.916;2022-10-17T01:10:21;152628.06;;;9.05;100.00
51287;BME280;37364;46.974;18.916;2022-10-17T01:13:02;152615.19;;;9.00;100.00
51287;BME280;37364;46.974;18.916;2022-10-17T01:15:42;152613.84;;;8.99;100.00
51287;BME280;37364;46.974;18.916;2022-10-17T01:18:29;152612.56;;;8.99;100.00
51287;BME280;37364;46.974;18.916;2022-10-17T01:21:22;152619.03;;;9.01;100.00
51287;BME280;37364;46.974;18.916;2022-10-17T01:27:03;152606.13;;;8.96;100.00
51287;BME280;37364;46.974;18.916;2022-10-17T01:29:52;152600.94;;;8.94;100.00
51287;BME280;37364;46.974;18.916;2022-10-17T01:32:34;152604.78;;;8.96;100.00
51287;BME280;37364;46.974;18.916;2022-10-17T01:35:10;152598.34;;;8.93;100.00
51287;BME280;37364;46.974;18.916;2022-10-17T01:37:45;152577.66;;;8.85;100.00
51287;BME280;37364;46.974;18.916;2022-10-17T01:40:40;152578.94;;;8.85;100.00
51287;BME280;37364;46.974;18.916;2022-10-17T01:43:17;152571.19;;;8.82;100.00
51287;BME280;37364;46.974;18.916;2022-10-17T01:45:52;152567.31;;;8.81;100.00
51287;BME280;37364;46.974;18.916;2022-10-17T01:48:33;152562.16;;;8.79;100.00
51287;BME280;37364;46.974;18.916;2022-10-17T01:51:07;152554.38;;;8.76;100.00
51287;BME280;37364;46.974;18.916;2022-10-17T01:53:44;152550.47;;;8.74;100.00
51287;BME280;37364;46.974;18.916;2022-10-17T01:56:17;152541.47;;;8.70;100.00
51287;BME280;37364;46.974;18.916;2022-10-17T01:58:50;152531.13;;;8.66;100.00
51287;BME280;37364;46.974;18.916;2022-10-17T02:01:23;152529.78;;;8.66;100.00
51287;BME280;37364;46.974;18.916;2022-10-17T02:03:58;152528.50;;;8.65;100.00
51287;BME280;37364;46.974;18.916;2022-10-17T02:06:33;152518.19;;;8.61;100.00
51287;BME280;37364;46.974;18.916;2022-10-17T02:09:19;152516.91;;;8.61;100.00
51287;BME280;37364;46.974;18.916;2022-10-17T02:11:59;152510.41;;;8.58;100.00
51287;BME280;37364;46.974;18.916;2022-10-17T02:14:40;152505.22;;;8.56;100.00
51287;BME280;37364;46.974;18.916;2022-10-17T02:17:23;152492.34;;;8.51;100.00
51287;BME280;37364;46.974;18.916;2022-10-17T02:20:08;152489.72;;;8.50;100.00
51287;BME280;37364;46.974;18.916;2022-10-17T02:22:47;152488.44;;;8.49;100.00
51287;BME280;37364;46.974;18.916;2022-10-17T02:25:25;152483.28;;;8.47;100.00
51287;BME280;37364;46.974;18.916;2022-10-17T02:28:02;152482.00;;;8.47;100.00
51287;BME280;37364;46.974;18.916;2022-10-17T02:30:41;152467.78;;;8.41;100.00
51287;BME280;37364;46.974;18.916;2022-10-17T02:33:17;152463.84;;;8.40;100.00
51287;BME280;37364;46.974;18.916;2022-10-17T02:36:01;152465.13;;;8.40;100.00
51287;BME280;37364;46.974;18.916;2022-10-17T02:38:33;152459.94;;;8.38;100.00
51287;BME280;37364;46.974;18.916;2022-10-17T02:41:05;152447.03;;;8.33;100.00
51287;BME280;37364;46.974;18.916;2022-10-17T02:43:38;152440.56;;;8.30;100.00
51287;BME280;37364;46.974;18.916;2022-10-17T02:46:12;152438.00;;;8.29;100.00
51287;BME280;37364;46.974;18.916;2022-10-17T02:48:49;152434.09;;;8.28;100.00
51287;BME280;37364;46.974;18.916;2022-10-17T02:51:28;152423.75;;;8.24;100.00
51287;BME280;37364;46.974;18.916;2022-10-17T02:54:06;152426.31;;;8.25;100.00
51287;BME280;37364;46.974;18.916;2022-10-17T02:56:42;152422.47;;;8.23;100.00
51287;BME280;37364;46.974;18.916;2022-10-17T02:59:16;152418.59;;;8.22;100.00
51287;BME280;37364;46.974;18.916;2022-10-17T03:01:50;152412.09;;;8.19;100.00
51287;BME280;37364;46.974;18.916;2022-10-17T03:04:21;152399.22;;;8.14;100.00
51287;BME280;37364;46.974;18.916;2022-10-17T03:06:53;152401.75;;;8.15;100.00
51287;BME280;37364;46.974;18.916;2022-10-17T03:09:24;152397.94;;;8.14;100.00
51287;BME280;37364;46.974;18.916;2022-10-17T03:11:54;152397.94;;;8.14;100.00
51287;BME280;37364;46.974;18.916;2022-10-17T03:14:24;152395.31;;;8.12;100.00
51287;BME280;37364;46.974;18.916;2022-10-17T03:16:54;152391.44;;;8.11;100.00
51287;BME280;37364;46.974;18.916;2022-10-17T03:19:25;152392.75;;;8.11;100.00
51287;BME280;37364;46.974;18.916;2022-10-17T03:21:58;152388.88;;;8.10;100.00
51287;BME280;37364;46.974;18.916;2022-10-17T03:24:29;152386.25;;;8.09;100.00
51287;BME280;37364;46.974;18.916;2022-10-17T03:26:59;152374.66;;;8.04;100.00
51287;BME280;37364;46.974;18.916;2022-10-17T03:29:29;152375.94;;;8.05;100.00
51287;BME280;37364;46.974;18.916;2022-10-17T03:32:01;152364.31;;;8.00;100.00
51287;BME280;37364;46.974;18.916;2022-10-17T03:34:31;152365.59;;;8.01;100.00
51287;BME280;37364;46.974;18.916;2022-10-17T03:37:04;152363.03;;;8.00;100.00
51287;BME280;37364;46.974;18.916;2022-10-17T03:39:36;152364.31;;;8.00;100.00
51287;BME280;37364;46.974;18.916;2022-10-17T03:42:06;152355.25;;;7.97;100.00
51287;BME280;37364;46.974;18.916;2022-10-17T03:44:36;152355.25;;;7.97;100.00
51287;BME280;37364;46.974;18.916;2022-10-17T03:47:06;152347.50;;;7.93;100.00
51287;BME280;37364;46.974;18.916;2022-10-17T03:49:40;152339.75;;;7.90;100.00
51287;BME280;37364;46.974;18.916;2022-10-17T03:52:13;152332.00;;;7.87;100.00
51287;BME280;37364;46.974;18.916;2022-10-17T03:54:44;152337.16;;;7.89;100.00
51287;BME280;37364;46.974;18.916;2022-10-17T03:57:15;152332.00;;;7.87;100.00
51287;BME280;37364;46.974;18.916;2022-10-17T03:59:45;152330.72;;;7.87;100.00
51287;BME280;37364;46.974;18.916;2022-10-17T04:02:18;152330.72;;;7.87;100.00
51287;BME280;37364;46.974;18.916;2022-10-17T04:04:48;152330.72;;;7.87;100.00
51287;BME280;37364;46.974;18.916;2022-10-17T04:07:21;152320.38;;;7.83;100.00
51287;BME280;37364;46.974;18.916;2022-10-17T04:10:13;152319.09;;;7.82;100.00
51287;BME280;37364;46.974;18.916;2022-10-17T04:12:44;152306.16;;;7.77;100.00
51287;BME280;37364;46.974;18.916;2022-10-17T04:15:15;152306.16;;;7.77;100.00
51287;BME280;37364;46.974;18.916;2022-10-17T04:17:45;152303.56;;;7.76;100.00
51287;BME280;37364;46.974;18.916;2022-10-17T04:20:16;152303.56;;;7.76;100.00
51287;BME280;37364;46.974;18.916;2022-10-17T04:22:49;152291.94;;;7.71;100.00
51287;BME280;37364;46.974;18.916;2022-10-17T04:25:19;152301.00;;;7.75;100.00
51287;BME280;37364;46.974;18.916;2022-10-17T04:27:50;152299.72;;;7.75;100.00
51287;BME280;37364;46.974;18.916;2022-10-17T04:30:23;152288.06;;;7.70;100.00
51287;BME280;37364;46.974;18.916;2022-10-17T04:32:55;152281.59;;;7.67;100.00
51287;BME280;37364;46.974;18.916;2022-10-17T04:35:26;152286.78;;;7.69;100.00
51287;BME280;37364;46.974;18.916;2022-10-17T04:38:04;152267.38;;;7.62;100.00
51287;BME280;37364;46.974;18.916;2022-10-17T04:40:35;152259.66;;;7.59;100.00
51287;BME280;37364;46.974;18.916;2022-10-17T04:43:05;152259.66;;;7.59;100.00
51287;BME280;37364;46.974;18.916;2022-10-17T04:45:36;152262.22;;;7.60;100.00
51287;BME280;37364;46.974;18.916;2022-10-17T04:48:07;152259.66;;;7.59;100.00
51287;BME280;37364;46.974;18.916;2022-10-17T04:50:37;152255.78;;;7.57;100.00
51287;BME280;37364;46.974;18.916;2022-10-17T04:53:30;152246.72;;;7.53;100.00
51287;BME280;37364;46.974;18.916;2022-10-17T04:56:06;152245.44;;;7.53;100.00
51287;BME280;37364;46.974;18.916;2022-10-17T04:58:38;152245.44;;;7.53;100.00
51287;BME280;37364;46.974;18.916;2022-10-17T05:01:11;152240.28;;;7.51;100.00
51287;BME280;37364;46.974;18.916;2022-10-17T05:03:45;152244.13;;;7.52;100.00
51287;BME280;37364;46.974;18.916;2022-10-17T05:06:17;152241.56;;;7.51;100.00
51287;BME280;37364;46.974;18.916;2022-10-17T05:09:08;152241.56;;;7.51;100.00
51287;BME280;37364;46.974;18.916;2022-10-17T05:11:39;152238.94;;;7.50;100.00
51287;BME280;37364;46.974;18.916;2022-10-17T05:14:11;152236.41;;;7.49;100.00
51287;BME280;37364;46.974;18.916;2022-10-17T05:16:42;152235.13;;;7.49;100.00
51287;BME280;37364;46.974;18.916;2022-10-17T05:19:12;152236.41;;;7.49;100.00
51287;BME280;37364;46.974;18.916;2022-10-17T05:21:47;152237.69;;;7.50;100.00
51287;BME280;37364;46.974;18.916;2022-10-17T05:24:19;152238.94;;;7.50;100.00
51287;BME280;37364;46.974;18.916;2022-10-17T05:26:50;152240.28;;;7.51;100.00
51287;BME280;37364;46.974;18.916;2022-10-17T05:29:20;152240.28;;;7.51;100.00
51287;BME280;37364;46.974;18.916;2022-10-17T05:31:57;152240.28;;;7.51;100.00
51287;BME280;37364;46.974;18.916;2022-10-17T05:34:28;152248.00;;;7.54;100.00
51287;BME280;37364;46.974;18.916;2022-10-17T05:36:58;152257.06;;;7.58;100.00
51287;BME280;37364;46.974;18.916;2022-10-17T05:39:31;152260.94;;;7.59;100.00
51287;BME280;37364;46.974;18.916;2022-10-17T05:42:03;152263.50;;;7.60;100.00
51287;BME280;37364;46.974;18.916;2022-10-17T05:44:34;152270.00;;;7.63;100.00
51287;BME280;37364;46.974;18.916;2022-10-17T05:47:06;152289.38;;;7.70;100.00
51287;BME280;37364;46.974;18.916;2022-10-17T05:49:37;152295.81;;;7.73;100.00
51287;BME280;37364;46.974;18.916;2022-10-17T05:52:16;152332.00;;;7.87;100.00
51287;BME280;37364;46.974;18.916;2022-10-17T05:55:04;152361.72;;;7.99;100.00
51287;BME280;37364;46.974;18.916;2022-10-17T05:57:35;152363.03;;;8.00;100.00
51287;BME280;37364;46.974;18.916;2022-10-17T06:00:11;152384.97;;;8.08;100.00
51287;BME280;37364;46.974;18.916;2022-10-17T06:02:43;152394.03;;;8.12;100.00
51287;BME280;37364;46.974;18.916;2022-10-17T06:05:17;152417.31;;;8.21;100.00
51287;BME280;37364;46.974;18.916;2022-10-17T06:07:47;152421.16;;;8.23;100.00
51287;BME280;37364;46.974;18.916;2022-10-17T06:10:22;152440.56;;;8.30;100.00
51287;BME280;37364;46.974;18.916;2022-10-17T06:12:53;152439.28;;;8.30;100.00
51287;BME280;37364;46.974;18.916;2022-10-17T06:15:27;152448.31;;;8.34;100.00
51287;BME280;37364;46.974;18.916;2022-10-17T06:18:05;152479.38;;;8.46;100.00
51287;BME280;37364;46.974;18.916;2022-10-17T06:20:35;152500.06;;;8.54;100.00
51287;BME280;37364;46.974;18.916;2022-10-17T06:23:12;152532.41;;;8.67;100.00
51287;BME280;37364;46.974;18.916;2022-10-17T06:26:01;152575.03;;;8.84;100.00
51287;BME280;37364;46.974;18.916;2022-10-17T06:28:31;152597.06;;;8.93;100.00
51287;BME280;37364;46.974;18.916;2022-10-17T06:31:04;152664.31;;;9.19;100.00
51287;BME280;37364;46.974;18.916;2022-10-17T06:33:36;152716.03;;;9.40;100.00
51287;BME280;37364;46.974;18.916;2022-10-17T06:36:10;152761.31;;;9.58;100.00
51287;BME280;37364;46.974;18.916;2022-10-17T06:38:42;152797.53;;;9.72;100.00
51287;BME280;37364;46.974;18.916;2022-10-17T06:41:35;152854.50;;;9.95;100.00
51287;BME280;37364;46.974;18.916;2022-10-17T06:44:07;152880.38;;;10.05;100.00
51287;BME280;37364;46.974;18.916;2022-10-17T06:47:00;152929.56;;;10.24;100.00
51287;BME280;37364;46.974;18.916;2022-10-17T06:49:31;153016.34;;;10.59;100.00
51287;BME280;37364;46.974;18.916;2022-10-17T06:52:22;153042.25;;;10.69;100.00
51287;BME280;37364;46.974;18.916;2022-10-17T06:55:11;153079.81;;;10.84;100.00
51287;BME280;37364;46.974;18.916;2022-10-17T06:58:10;153139.38;;;11.07;100.00
51287;BME280;37364;46.974;18.916;2022-10-17T07:00:57;153174.34;;;11.21;100.00
51287;BME280;37364;46.974;18.916;2022-10-17T07:03:29;153211.88;;;11.36;100.00
51287;BME280;37364;46.974;18.916;2022-10-17T07:06:00;153278.00;;;11.62;100.00
51287;BME280;37364;46.974;18.916;2022-10-17T07:08:30;153288.34;;;11.66;100.00
51287;BME280;37364;46.974;18.916;2022-10-17T07:11:08;153329.81;;;11.83;100.00
51287;BME280;37364;46.974;18.916;2022-10-17T07:13:41;153359.66;;;11.95;100.00
51287;BME280;37364;46.974;18.916;2022-10-17T07:16:12;153392.09;;;12.07;100.00
51287;BME280;37364;46.974;18.916;2022-10-17T07:18:47;153455.56;;;12.33;100.00
51287;BME280;37364;46.974;18.916;2022-10-17T07:21:18;153487.97;;;12.45;100.00
51287;BME280;37364;46.974;18.916;2022-10-17T07:23:49;153497.06;;;12.49;100.00
51287;BME280;37364;46.974;18.916;2022-10-17T07:26:20;153552.81;;;12.71;100.00
51287;BME280;37364;46.974;18.916;2022-10-17T07:28:54;153554.09;;;12.72;100.00
51287;BME280;37364;46.974;18.916;2022-10-17T07:31:33;153617.63;;;12.97;100.00
51287;BME280;37364;46.974;18.916;2022-10-17T07:34:03;153641.00;;;13.06;100.00
51287;BME280;37364;46.974;18.916;2022-10-17T07:36:33;153663.03;;;13.15;100.00
51287;BME280;37364;46.974;18.916;2022-10-17T07:39:06;153648.75;;;13.09;100.00
51287;BME280;37364;46.974;18.916;2022-10-17T07:41:37;153679.91;;;13.21;100.00
51287;BME280;37364;46.974;18.916;2022-10-17T07:44:10;153720.19;;;13.37;100.00
51287;BME280;37364;46.974;18.916;2022-10-17T07:46:45;153759.09;;;13.53;100.00
51287;BME280;37364;46.974;18.916;2022-10-17T07:49:17;153779.84;;;13.61;100.00
51287;BME280;37364;46.974;18.916;2022-10-17T07:51:47;153804.50;;;13.71;100.00
51287;BME280;37364;46.974;18.916;2022-10-17T07:54:18;153855.09;;;13.91;100.00
51287;BME280;37364;46.974;18.916;2022-10-17T07:56:48;153874.56;;;13.98;100.00
51287;BME280;37364;46.974;18.916;2022-10-17T07:59:21;153860.28;;;13.93;100.00
51287;BME280;37364;46.974;18.916;2022-10-17T08:01:54;153916.09;;;14.15;100.00
51287;BME280;37364;46.974;18.916;2022-10-17T08:04:25;153968.03;;;14.35;100.00
51287;BME280;37364;46.974;18.916;2022-10-17T08:06:59;154004.38;;;14.50;97.96
51287;BME280;37364;46.974;18.916;2022-10-17T08:09:46;153999.19;;;14.48;100.00
51287;BME280;37364;46.974;18.916;2022-10-17T08:12:18;154047.28;;;14.67;100.00
51287;BME280;37364;46.974;18.916;2022-10-17T08:14:51;154070.63;;;14.76;97.88
51287;BME280;37364;46.974;18.916;2022-10-17T08:17:21;154096.63;;;14.86;97.30
51287;BME280;37364;46.974;18.916;2022-10-17T08:19:51;154116.09;;;14.94;97.77
51287;BME280;37364;46.974;18.916;2022-10-17T08:22:21;154148.53;;;15.07;96.72
51287;BME280;37364;46.974;18.916;2022-10-17T08:24:52;154179.69;;;15.19;94.21
51287;BME280;37364;46.974;18.916;2022-10-17T08:27:23;154214.81;;;15.33;93.56
51287;BME280;37364;46.974;18.916;2022-10-17T08:29:57;154244.69;;;15.45;93.69
51287;BME280;37364;46.974;18.916;2022-10-17T08:32:28;154255.06;;;15.49;92.36
51287;BME280;37364;46.974;18.916;2022-10-17T08:34:58;154287.53;;;15.61;94.28
51287;BME280;37364;46.974;18.916;2022-10-17T08:37:29;154327.84;;;15.77;92.82
51287;BME280;37364;46.974;18.916;2022-10-17T08:39:59;154374.66;;;15.96;89.01
51287;BME280;37364;46.974;18.916;2022-10-17T08:42:42;154379.84;;;15.98;91.26
51287;BME280;37364;46.974;18.916;2022-10-17T08:45:23;154396.72;;;16.05;88.26
51287;BME280;37364;46.974;18.916;2022-10-17T08:47:59;154420.13;;;16.14;89.07
51287;BME280;37364;46.974;18.916;2022-10-17T08:50:33;154446.13;;;16.24;88.85
51287;BME280;37364;46.974;18.916;2022-10-17T08:53:07;154450.03;;;16.26;87.23
51287;BME280;37364;46.974;18.916;2022-10-17T08:55:45;154502.00;;;16.46;88.17
51287;BME280;37364;46.974;18.916;2022-10-17T08:58:19;154516.28;;;16.52;85.83
51287;BME280;37364;46.974;18.916;2022-10-17T09:01:01;154531.91;;;16.58;83.43
51287;BME280;37364;46.974;18.916;2022-10-17T09:03:53;154564.41;;;16.71;82.19
51287;BME280;37364;46.974;18.916;2022-10-17T09:06:32;154585.22;;;16.79;85.36
51287;BME280;37364;46.974;18.916;2022-10-17T09:09:16;154604.75;;;16.87;81.67
51287;BME280;37364;46.974;18.916;2022-10-17T09:12:13;154613.88;;;16.90;81.71
51287;BME280;37364;46.974;18.916;2022-10-17T09:14:56;154625.56;;;16.95;82.93
51287;BME280;37364;46.974;18.916;2022-10-17T09:17:37;154645.06;;;17.03;83.84
51287;BME280;37364;46.974;18.916;2022-10-17T09:20:14;154682.81;;;17.17;80.49
51287;BME280;37364;46.974;18.916;2022-10-17T09:22:48;154690.56;;;17.20;78.87
51287;BME280;37364;46.974;18.916;2022-10-17T09:25:20;154710.09;;;17.28;80.26
51287;BME280;37364;46.974;18.916;2022-10-17T09:27:52;154746.53;;;17.43;79.33
51287;BME280;37364;46.974;18.916;2022-10-17T09:30:33;154776.47;;;17.54;78.16
51287;BME280;37364;46.974;18.916;2022-10-17T09:33:16;154814.16;;;17.69;77.91
51287;BME280;37364;46.974;18.916;2022-10-17T09:36:10;154832.38;;;17.76;76.63
51287;BME280;37364;46.974;18.916;2022-10-17T09:38:44;154853.25;;;17.85;77.00
51287;BME280;37364;46.974;18.916;2022-10-17T09:41:19;154889.66;;;17.99;76.47
51287;BME280;37364;46.974;18.916;2022-10-17T09:44:18;154913.09;;;18.08;74.62
51287;BME280;37364;46.974;18.916;2022-10-17T09:46:58;154933.91;;;18.16;74.39
51287;BME280;37364;46.974;18.916;2022-10-17T09:49:34;154952.13;;;18.24;74.45
51287;BME280;37364;46.974;18.916;2022-10-17T09:52:10;154991.19;;;18.39;72.32
51287;BME280;37364;46.974;18.916;2022-10-17T09:54:44;155002.88;;;18.44;72.84
51287;BME280;37364;46.974;18.916;2022-10-17T09:57:16;155019.84;;;18.50;72.98
51287;BME280;37364;46.974;18.916;2022-10-17T09:59:55;155061.47;;;18.67;69.72
51287;BME280;37364;46.974;18.916;2022-10-17T10:02:27;155083.56;;;18.75;68.97
51287;BME280;37364;46.974;18.916;2022-10-17T10:05:04;155118.78;;;18.89;68.92
51287;BME280;37364;46.974;18.916;2022-10-17T10:07:38;155140.94;;;18.98;68.73
51287;BME280;37364;46.974;18.916;2022-10-17T10:10:24;155163.03;;;19.07;66.96
51287;BME280;37364;46.974;18.916;2022-10-17T10:13:05;155176.09;;;19.12;63.64
51287;BME280;37364;46.974;18.916;2022-10-17T10:15:37;155224.28;;;19.31;60.91
51287;BME280;37364;46.974;18.916;2022-10-17T10:18:30;155232.06;;;19.34;64.54
51287;BME280;37364;46.974;18.916;2022-10-17T10:21:07;155232.06;;;19.34;58.53
51287;BME280;37364;46.974;18.916;2022-10-17T10:23:38;155268.56;;;19.48;65.49
51287;BME280;37364;46.974;18.916;2022-10-17T10:26:21;155251.59;;;19.42;62.76
51287;BME280;37364;46.974;18.916;2022-10-17T10:28:55;155298.53;;;19.60;64.08
51287;BME280;37364;46.974;18.916;2022-10-17T10:31:32;155308.94;;;19.64;61.07
51287;BME280;37364;46.974;18.916;2022-10-17T10:34:14;155359.78;;;19.84;63.91
51287;BME280;37364;46.974;18.916;2022-10-17T10:36:57;155342.81;;;19.78;61.19
51287;BME280;37364;46.974;18.916;2022-10-17T10:39:40;155394.94;;;19.98;62.06
51287;BME280;37364;46.974;18.916;2022-10-17T10:42:20;155417.06;;;20.07;59.33
51287;BME280;37364;46.974;18.916;2022-10-17T10:44:53;155435.31;;;20.14;61.88
51287;BME280;37364;46.974;18.916;2022-10-17T10:47:25;155467.94;;;20.27;60.18
51287;BME280;37364;46.974;18.916;2022-10-17T10:50:16;155470.50;;;20.28;59.84
51287;BME280;37364;46.974;18.916;2022-10-17T10:52:56;155487.44;;;20.34;60.83
51287;BME280;37364;46.974;18.916;2022-10-17T10:55:33;155461.38;;;20.24;56.63
51287;BME280;37364;46.974;18.916;2022-10-17T10:58:18;155520.03;;;20.47;58.25
51287;BME280;37364;46.974;18.916;2022-10-17T11:00:53;155555.25;;;20.61;59.87
51287;BME280;37364;46.974;18.916;2022-10-17T11:03:28;155520.03;;;20.47;58.18
51287;BME280;37364;46.974;18.916;2022-10-17T11:06:09;155572.19;;;20.68;60.44
51287;BME280;37364;46.974;18.916;2022-10-17T11:08:48;155548.72;;;20.59;56.99
51287;BME280;37364;46.974;18.916;2022-10-17T11:11:27;155585.25;;;20.73;59.21
51287;BME280;37364;46.974;18.916;2022-10-17T11:14:02;155595.66;;;20.77;56.56
51287;BME280;37364;46.974;18.916;2022-10-17T11:16:45;155650.41;;;20.99;54.84
51287;BME280;37364;46.974;18.916;2022-10-17T11:19:23;155660.84;;;21.03;55.44
51287;BME280;37364;46.974;18.916;2022-10-17T11:22:01;155673.88;;;21.08;53.03
51287;BME280;37364;46.974;18.916;2022-10-17T11:24:41;155683.03;;;21.11;53.86
51287;BME280;37364;46.974;18.916;2022-10-17T11:27:13;155688.22;;;21.13;51.63
51287;BME280;37364;46.974;18.916;2022-10-17T11:29:44;155686.94;;;21.13;50.71
51287;BME280;37364;46.974;18.916;2022-10-17T11:32:19;155736.44;;;21.32;51.79
51287;BME280;37364;46.974;18.916;2022-10-17T11:34:54;155739.06;;;21.33;52.69
51287;BME280;37364;46.974;18.916;2022-10-17T11:37:30;155710.38;;;21.22;50.57
51287;BME280;37364;46.974;18.916;2022-10-17T11:40:14;155757.34;;;21.41;52.00
51287;BME280;37364;46.974;18.916;2022-10-17T11:42:53;155713.00;;;21.23;51.09
51287;BME280;37364;46.974;18.916;2022-10-17T11:45:29;155711.66;;;21.23;50.91
51287;BME280;37364;46.974;18.916;2022-10-17T11:48:11;155688.22;;;21.13;51.90
51287;BME280;37364;46.974;18.916;2022-10-17T11:50:46;155741.69;;;21.35;52.40
51287;BME280;37364;46.974;18.916;2022-10-17T11:53:45;155786.03;;;21.52;52.43
51287;BME280;37364;46.974;18.916;2022-10-17T11:56:24;155797.81;;;21.57;51.13
51287;BME280;37364;46.974;18.916;2022-10-17T11:59:04;155838.22;;;21.72;50.63
51287;BME280;37364;46.974;18.916;2022-10-17T12:01:43;155800.38;;;21.58;49.48
51287;BME280;37364;46.974;18.916;2022-10-17T12:04:23;155796.53;;;21.56;51.54
51287;BME280;37364;46.974;18.916;2022-10-17T12:07:04;155808.25;;;21.61;52.76
51287;BME280;37364;46.974;18.916;2022-10-17T12:09:54;155827.81;;;21.68;51.41
51287;BME280;37364;46.974;18.916;2022-10-17T12:12:31;155789.97;;;21.53;50.46
51287;BME280;37364;46.974;18.916;2022-10-17T12:15:26;155795.19;;;21.56;50.38
51287;BME280;37364;46.974;18.916;2022-10-17T12:17:59;155778.25;;;21.49;51.37
51287;BME280;37364;46.974;18.916;2022-10-17T12:20:34;155786.03;;;21.52;51.82
51287;BME280;37364;46.974;18.916;2022-10-17T12:23:22;155766.47;;;21.44;49.20
51287;BME280;37364;46.974;18.916;2022-10-17T12:25:56;155739.06;;;21.33;50.51
51287;BME280;37364;46.974;18.916;2022-10-17T12:28:40;155741.69;;;21.35;52.05
51287;BME280;37364;46.974;18.916;2022-10-17T12:31:22;155705.16;;;21.20;49.85
51287;BME280;37364;46.974;18.916;2022-10-17T12:34:00;155727.34;;;21.29;50.85
51287;BME280;37364;46.974;18.916;2022-10-17T12:36:40;155732.56;;;21.31;50.50
51287;BME280;37364;46.974;18.916;2022-10-17T12:45:46;155715.59;;;21.24;51.15
51287;BME280;37364;46.974;18.916;2022-10-17T12:48:57;155706.44;;;21.21;49.87
51287;BME280;37364;46.974;18.916;2022-10-17T12:51:28;155707.78;;;21.21;52.08
51287;BME280;37364;46.974;18.916;2022-10-17T12:54:09;155727.34;;;21.29;51.92
51287;BME280;37364;46.974;18.916;2022-10-17T12:56:43;155719.50;;;21.26;51.89
51287;BME280;37364;46.974;18.916;2022-10-17T12:59:16;155714.28;;;21.24;50.82
51287;BME280;37364;46.974;18.916;2022-10-17T13:01:56;155718.22;;;21.25;51.45
51287;BME280;37364;46.974;18.916;2022-10-17T13:04:27;155705.16;;;21.20;52.68
51287;BME280;37364;46.974;18.916;2022-10-17T13:06:58;155690.81;;;21.14;52.32
51287;BME280;37364;46.974;18.916;2022-10-17T13:09:31;155690.81;;;21.14;53.41
51287;BME280;37364;46.974;18.916;2022-10-17T13:12:03;155699.94;;;21.18;53.66
51287;BME280;37364;46.974;18.916;2022-10-17T13:14:38;155673.88;;;21.08;50.46
51287;BME280;37364;46.974;18.916;2022-10-17T13:17:23;155680.38;;;21.10;49.03
51287;BME280;37364;46.974;18.916;2022-10-17T13:19:54;155655.63;;;21.01;51.06
51287;BME280;37364;46.974;18.916;2022-10-17T13:22:27;155608.72;;;20.82;51.17
51287;BME280;37364;46.974;18.916;2022-10-17T13:25:07;155615.22;;;20.85;50.24
51287;BME280;37364;46.974;18.916;2022-10-17T13:27:37;155573.53;;;20.68;51.36
51287;BME280;37364;46.974;18.916;2022-10-17T13:30:23;155589.16;;;20.74;49.56
51287;BME280;37364;46.974;18.916;2022-10-17T13:33:01;155572.19;;;20.68;50.84
51287;BME280;37364;46.974;18.916;2022-10-17T13:35:34;155550.06;;;20.59;51.47